Time;durP1;ratioP1;P1;durP2;ratioP2;P2;SDS_P1;SDS_P2;PMS_P1;PMS_P2;Temp;Humidity;BMP_temperature;BMP_pressure;BME280_temperature;BME280_humidity;BME280_pressure;Samples;Min_cycle;Max_cycle;Signal;HPM_P1;HPM_P2
2023/12/12 00:02:20;;;;;;;17.42;11.45;;;8.90;99.90;;;;;;5094622;28;20039;-49
2023/12/12 00:04:46;;;;;;;17.17;9.95;;;8.80;99.90;;;;;;5075430;28;20069;-49
2023/12/12 00:07:11;;;;;;;12.48;7.82;;;8.90;99.90;;;;;;5094236;28;20107;-53
2023/12/12 00:09:37;;;;;;;7.70;5.30;;;8.90;99.90;;;;;;5094459;28;20027;-52
2023/12/12 00:12:03;;;;;;;8.23;5.32;;;8.90;99.90;;;;;;5094378;28;20039;-51
2023/12/12 00:14:29;;;;;;;9.35;5.45;;;9.00;99.90;;;;;;5075011;28;20036;-49
2023/12/12 00:16:55;;;;;;;8.57;5.40;;;9.00;99.90;;;;;;5080452;28;20036;-53
2023/12/12 00:19:20;;;;;;;9.90;5.97;;;9.00;99.90;;;;;;5108666;28;20028;-52
2023/12/12 00:21:46;;;;;;;7.28;4.47;;;8.90;99.90;;;;;;5114738;28;20055;-54
2023/12/12 00:24:12;;;;;;;8.52;5.40;;;8.80;99.90;;;;;;5095428;28;20036;-49
2023/12/12 00:26:37;;;;;;;8.23;5.00;;;8.80;99.90;;;;;;5094831;28;20048;-49
2023/12/12 00:29:03;;;;;;;7.68;5.03;;;8.80;99.90;;;;;;5114472;28;20527;-51
2023/12/12 00:31:30;;;;;;;7.15;4.97;;;;;;;;;;5095008;28;20047;-49
2023/12/12 00:33:56;;;;;;;8.35;5.10;;;8.90;99.90;;;;;;5114186;28;20028;-53
2023/12/12 00:36:22;;;;;;;8.65;6.25;;;9.00;99.90;;;;;;5114143;28;20026;-49
2023/12/12 00:38:49;;;;;;;6.53;4.28;;;9.00;99.90;;;;;;5095179;28;20058;-49
2023/12/12 00:41:14;;;;;;;6.38;4.30;;;9.00;99.90;;;;;;5114184;28;20027;-52
2023/12/12 00:49:58;;;;;;;5.35;3.05;;;9.30;99.90;;;;;;5114096;28;20108;-50
2023/12/12 00:52:25;;;;;;;5.25;3.20;;;9.20;99.90;;;;;;5060809;28;20466;-48
2023/12/12 00:54:51;;;;;;;7.80;4.85;;;9.30;99.90;;;;;;5114344;28;20051;-50
2023/12/12 00:57:16;;;;;;;9.45;6.05;;;9.50;99.90;;;;;;5094670;28;20092;-48
2023/12/12 00:59:42;;;;;;;10.50;7.70;;;9.70;99.90;;;;;;5113684;28;20119;-50
2023/12/12 01:02:08;;;;;;;9.13;6.97;;;;;;;;;;5113797;28;20043;-50
2023/12/12 01:04:34;;;;;;;10.23;6.05;;;10.00;99.90;;;;;;5113823;28;20035;-50
2023/12/12 01:07:01;;;;;;;10.02;6.53;;;10.10;99.90;;;;;;5115244;28;20060;-52
2023/12/12 01:09:28;;;;;;;7.78;5.10;;;10.20;99.90;;;;;;5095966;28;20023;-51
2023/12/12 01:11:53;;;;;;;8.15;4.57;;;10.40;99.90;;;;;;5115257;28;20059;-51
2023/12/12 01:14:20;;;;;;;7.50;4.40;;;;;;;;;;5114638;28;20035;-51
2023/12/12 01:16:46;;;;;;;7.10;4.68;;;10.50;99.90;;;;;;5114567;28;20092;-50
2023/12/12 01:19:12;;;;;;;7.18;4.75;;;;;;;;;;5095223;28;20449;-54
2023/12/12 01:21:37;;;;;;;5.82;4.28;;;10.70;99.90;;;;;;5114026;28;20065;-51
2023/12/12 01:24:03;;;;;;;5.80;4.03;;;10.70;99.90;;;;;;5114060;28;20032;-53
2023/12/12 01:26:29;;;;;;;9.07;5.80;;;10.50;99.90;;;;;;5077371;28;20096;-53
2023/12/12 01:28:55;;;;;;;8.55;5.65;;;10.50;99.90;;;;;;5114163;28;20020;-53
2023/12/12 01:31:21;;;;;;;8.18;4.75;;;10.50;99.90;;;;;;5113659;28;20023;-49
2023/12/12 01:33:49;;;;;;;13.13;7.28;;;10.40;99.90;;;;;;5113409;28;20031;-53
2023/12/12 01:36:14;;;;;;;19.25;11.95;;;10.40;99.90;;;;;;5113743;28;20394;-51
2023/12/12 01:38:40;;;;;;;15.18;9.63;;;10.40;99.90;;;;;;5113389;28;20027;-53
2023/12/12 01:41:06;;;;;;;19.60;14.50;;;10.20;99.90;;;;;;5113168;28;20031;-53
2023/12/12 01:43:32;;;;;;;19.45;13.20;;;9.80;99.90;;;;;;5112936;28;20100;-51
2023/12/12 01:46:18;;;;;;;13.35;8.07;;;9.60;99.90;;;;;;5043376;28;20055;-49
2023/12/12 01:48:44;;;;;;;12.30;8.07;;;9.50;99.90;;;;;;5112749;28;20122;-50
2023/12/12 01:51:10;;;;;;;10.15;6.45;;;9.70;99.90;;;;;;5112945;28;20055;-52
2023/12/12 01:53:41;;;;;;;11.05;6.32;;;9.80;99.90;;;;;;5112854;28;20047;-54
2023/12/12 01:56:07;;;;;;;9.83;7.30;;;10.00;99.90;;;;;;5113079;28;20035;-52
2023/12/12 01:58:35;;;;;;;10.45;7.70;;;10.10;99.90;;;;;;5076219;28;20260;-52
2023/12/12 02:01:03;;;;;;;10.20;7.18;;;10.10;99.90;;;;;;5112731;28;20409;-51
2023/12/12 02:03:30;;;;;;;9.63;6.15;;;10.00;99.90;;;;;;5112847;28;20059;-52
2023/12/12 02:05:58;;;;;;;9.27;7.28;;;9.80;99.90;;;;;;5112522;28;20480;-51
2023/12/12 02:08:42;;;;;;;12.88;9.40;;;9.70;99.90;;;;;;5112435;28;20047;-53
2023/12/12 02:11:08;;;;;;;12.93;8.38;;;9.60;99.90;;;;;;5112614;28;20063;-52
2023/12/12 02:13:34;;;;;;;13.45;9.55;;;9.30;99.90;;;;;;5112815;28;20360;-52
2023/12/12 02:16:00;;;;;;;19.45;11.98;;;9.20;99.90;;;;;;5112571;28;20034;-55
2023/12/12 02:18:26;;;;;;;17.40;11.13;;;9.40;99.90;;;;;;5093391;28;20036;-51
2023/12/12 02:20:51;;;;;;;17.38;10.93;;;9.40;99.90;;;;;;5093024;28;20035;-50
2023/12/12 02:23:17;;;;;;;14.73;9.85;;;;;;;;;;5112287;28;20073;-54
2023/12/12 02:29:48;;;;;;;16.63;11.05;;;9.80;99.90;;;;;;5072052;28;20139;-51
2023/12/12 02:32:16;;;;;;;15.13;9.98;;;9.90;99.90;;;;;;5071805;28;20430;-51
2023/12/12 02:34:43;;;;;;;16.13;10.52;;;9.90;99.90;;;;;;5072012;28;20040;-51
2023/12/12 02:37:09;;;;;;;22.02;13.95;;;9.60;99.90;;;;;;5069468;28;20132;-50
2023/12/12 02:39:35;;;;;;;18.52;13.10;;;9.80;99.90;;;;;;5069462;28;20119;-53
2023/12/12 02:42:00;;;;;;;19.92;13.63;;;9.90;99.90;;;;;;5071604;28;20025;-50
2023/12/12 02:44:26;;;;;;;25.95;17.20;;;9.90;99.90;;;;;;5071861;28;20060;-52
2023/12/12 02:46:52;;;;;;;40.00;28.88;;;9.90;99.90;;;;;;5071534;28;20064;-49
2023/12/12 02:49:18;;;;;;;40.88;28.95;;;10.00;99.90;;;;;;5071642;28;20101;-50
2023/12/12 02:51:43;;;;;;;32.97;23.35;;;9.90;99.90;;;;;;5035883;28;20033;-52
2023/12/12 02:54:09;;;;;;;37.30;26.10;;;9.80;99.90;;;;;;5071679;28;20037;-50
2023/12/12 02:56:35;;;;;;;29.75;18.75;;;9.70;99.90;;;;;;5071441;28;20017;-49
2023/12/12 02:59:00;;;;;;;19.77;12.80;;;9.70;99.90;;;;;;5071486;28;20036;-52
2023/12/12 03:01:27;;;;;;;12.93;8.82;;;9.80;99.90;;;;;;5069241;28;20044;-52
2023/12/12 03:03:53;;;;;;;11.63;9.55;;;9.80;99.90;;;;;;5071417;28;20063;-51
2023/12/12 03:06:18;;;;;;;11.95;8.55;;;9.80;99.90;;;;;;5070044;28;20469;-52
2023/12/12 03:08:44;;;;;;;14.32;8.57;;;9.90;99.90;;;;;;5071965;28;20033;-51
2023/12/12 03:11:10;;;;;;;12.55;8.95;;;9.80;99.90;;;;;;5074210;28;20024;-51
2023/12/12 03:13:35;;;;;;;9.82;7.65;;;9.80;99.90;;;;;;5089869;28;20127;-51
2023/12/12 03:16:01;;;;;;;13.20;8.15;;;9.80;99.90;;;;;;5090048;28;20094;-52
2023/12/12 03:18:27;;;;;;;39.08;27.13;;;9.80;99.90;;;;;;5075335;28;20044;-49
2023/12/12 03:20:53;;;;;;;40.67;27.40;;;9.80;99.90;;;;;;5075475;28;20025;-53
2023/12/12 03:23:18;;;;;;;43.17;29.98;;;9.70;99.90;;;;;;5074781;28;20028;-53
2023/12/12 03:25:44;;;;;;;30.15;22.05;;;9.80;99.90;;;;;;5074781;28;20099;-52
2023/12/12 03:28:11;;;;;;;22.55;16.67;;;9.90;99.90;;;;;;5112429;28;20051;-53
2023/12/12 03:30:37;;;;;;;18.83;13.02;;;9.80;99.90;;;;;;5115604;28;20031;-52
2023/12/12 03:33:02;;;;;;;21.52;16.42;;;9.90;99.90;;;;;;5115335;28;20130;-52
2023/12/12 03:35:28;;;;;;;43.38;29.00;;;9.60;99.90;;;;;;5115392;28;20022;-51
2023/12/12 03:37:54;;;;;;;47.40;33.05;;;9.50;99.90;;;;;;5079233;28;20039;-53
2023/12/12 03:40:19;;;;;;;40.13;30.15;;;9.20;99.90;;;;;;5115541;28;20476;-54
2023/12/12 03:42:45;;;;;;;52.90;35.83;;;9.20;99.90;;;;;;5115528;28;20016;-49
2023/12/12 03:45:11;;;;;;;38.22;29.65;;;8.80;99.90;;;;;;5115225;28;20052;-54
2023/12/12 03:47:36;;;;;;;35.00;25.15;;;8.60;99.90;;;;;;5095867;28;20145;-50
2023/12/12 03:50:03;;;;;;;32.60;24.23;;;8.60;99.90;;;;;;5115578;28;20362;-50
2023/12/12 03:52:29;;;;;;;28.83;22.00;;;;;;;;;;5096063;28;20473;-53
2023/12/12 03:54:55;;;;;;;39.15;31.17;;;8.50;99.90;;;;;;5115050;28;20072;-52
2023/12/12 03:57:21;;;;;;;32.83;25.80;;;8.30;99.90;;;;;;5115415;28;20027;-55
2023/12/12 03:59:46;;;;;;;28.85;21.27;;;8.40;99.90;;;;;;5095835;28;20035;-52
2023/12/12 04:02:12;;;;;;;39.95;27.45;;;8.00;99.90;;;;;;5115224;27;20487;-53
2023/12/12 04:04:38;;;;;;;43.83;32.17;;;8.00;99.90;;;;;;5114840;28;20482;-50
2023/12/12 04:07:04;;;;;;;181.77;115.88;;;8.10;99.90;;;;;;5114870;28;20118;-50
2023/12/12 04:09:30;;;;;;;78.60;54.28;;;7.90;99.90;;;;;;5114870;28;20031;-53
2023/12/12 04:11:56;;;;;;;66.88;47.00;;;8.00;99.90;;;;;;5095587;28;20039;-51
2023/12/12 04:14:22;;;;;;;65.45;48.55;;;8.20;99.90;;;;;;5114609;28;20026;-53
2023/12/12 04:16:48;;;;;;;32.70;24.38;;;8.20;99.90;;;;;;5114962;28;20391;-52
2023/12/12 04:19:13;;;;;;;11.48;8.93;;;8.10;99.90;;;;;;5095180;28;20118;-52
2023/12/12 04:21:43;;;;;;;20.45;15.77;;;7.90;99.90;;;;;;5095228;28;20031;-52
2023/12/12 04:24:09;;;;;;;22.25;13.77;;;8.00;99.90;;;;;;5114352;28;20028;-51
2023/12/12 04:26:34;;;;;;;16.85;11.10;;;8.10;99.90;;;;;;5114287;28;20450;-50
2023/12/12 04:29:00;;;;;;;19.42;13.35;;;;;;;;;;5114511;28;20058;-51
2023/12/12 04:31:26;;;;;;;15.52;11.25;;;8.40;99.90;;;;;;5114220;28;20111;-51
2023/12/12 04:33:52;;;;;;;18.95;12.65;;;8.40;99.90;;;;;;5078198;28;20114;-51
2023/12/12 04:36:18;;;;;;;18.70;13.93;;;8.40;99.90;;;;;;5114271;28;20524;-53
2023/12/12 04:38:44;;;;;;;15.45;12.70;;;8.50;99.90;;;;;;5114218;28;20089;-51
2023/12/12 04:41:09;;;;;;;18.45;13.73;;;8.60;99.90;;;;;;5114461;28;20024;-55
2023/12/12 04:43:35;;;;;;;23.50;16.50;;;8.70;99.90;;;;;;5114008;28;20069;-52
2023/12/12 04:46:01;;;;;;;74.85;38.10;;;8.60;99.90;;;;;;5114113;28;20027;-50
2023/12/12 04:48:27;;;;;;;46.95;35.10;;;8.60;99.90;;;;;;5094575;28;20039;-49
2023/12/12 04:50:53;;;;;;;130.55;20.10;;;8.40;99.90;;;;;;5114542;28;20028;-54
2023/12/12 04:53:19;;;;;;;121.38;22.67;;;;;;;;;;5113744;28;20027;-51
2023/12/12 04:55:45;;;;;;;129.20;26.02;;;8.00;99.90;;;;;;5113980;28;20027;-52
2023/12/12 04:58:10;;;;;;;56.25;24.55;;;7.70;99.90;;;;;;5114281;28;20027;-55
2023/12/12 05:00:36;;;;;;;36.50;22.65;;;7.80;99.90;;;;;;5110529;28;20031;-54
2023/12/12 05:03:02;;;;;;;132.10;33.08;;;7.80;99.90;;;;;;5096753;28;20442;-52
2023/12/12 05:05:28;;;;;;;55.30;29.80;;;;;;;;;;5094144;28;20096;-51
2023/12/12 05:07:55;;;;;;;32.22;17.10;;;7.20;99.90;;;;;;5113610;28;20031;-53
2023/12/12 05:10:21;;;;;;;26.15;17.95;;;7.10;99.90;;;;;;5113134;28;20120;-50
2023/12/12 05:12:46;;;;;;;22.92;15.32;;;6.70;99.90;;;;;;5113446;28;20060;-52
2023/12/12 05:15:12;;;;;;;27.15;17.23;;;6.80;99.90;;;;;;5094897;28;20043;-51
2023/12/12 05:17:38;;;;;;;11.80;7.57;;;6.80;99.90;;;;;;5093103;28;20020;-53
2023/12/12 05:20:04;;;;;;;9.20;5.82;;;;;;;;;;5073985;28;20142;-52
2023/12/12 05:22:30;;;;;;;11.88;7.72;;;6.60;99.90;;;;;;5092992;28;20031;-51
2023/12/12 05:24:56;;;;;;;11.32;8.73;;;6.50;99.90;;;;;;5024164;28;20426;-52
2023/12/12 05:27:22;;;;;;;13.02;9.40;;;6.40;99.90;;;;;;5092501;28;20056;-53
2023/12/12 05:29:47;;;;;;;11.85;8.60;;;6.70;99.90;;;;;;5076205;28;20040;-52
2023/12/12 05:32:13;;;;;;;11.10;7.32;;;6.70;99.90;;;;;;5073063;28;20036;-51
2023/12/12 05:34:39;;;;;;;23.17;13.13;;;6.40;99.90;;;;;;5092516;28;20034;-51
2023/12/12 05:37:05;;;;;;;17.85;13.18;;;;;;;;;;5109736;28;20023;-50
2023/12/12 05:39:31;;;;;;;13.18;10.20;;;6.50;99.90;;;;;;5112873;28;20037;-52
2023/12/12 05:41:56;;;;;;;16.25;11.90;;;6.50;99.90;;;;;;5106333;28;20032;-51
2023/12/12 05:44:23;;;;;;;9.50;6.35;;;6.40;99.90;;;;;;5092088;28;20028;-52
2023/12/12 05:46:50;;;;;;;19.63;15.48;;;6.40;99.90;;;;;;5092248;28;20044;-51
2023/12/12 05:49:16;;;;;;;18.70;13.38;;;6.60;99.90;;;;;;5069462;28;20671;-53
2023/12/12 05:51:43;;;;;;;18.95;14.98;;;6.50;99.90;;;;;;5102506;28;20035;-52
2023/12/12 05:54:11;;;;;;;25.08;18.30;;;6.40;99.90;;;;;;5102981;28;20039;-50
2023/12/12 05:56:38;;;;;;;28.13;16.23;;;6.20;99.90;;;;;;5101091;28;20027;-49
2023/12/12 05:59:04;;;;;;;22.48;13.10;;;6.10;99.90;;;;;;5080169;28;20039;-51
2023/12/12 06:01:30;;;;;;;13.85;10.25;;;6.00;99.90;;;;;;5074815;28;20036;-53
2023/12/12 06:03:55;;;;;;;13.70;9.25;;;6.20;99.90;;;;;;5092740;28;20035;-54
2023/12/12 06:06:21;;;;;;;10.15;8.90;;;6.30;99.90;;;;;;5098072;28;20024;-51
2023/12/12 06:08:47;;;;;;;9.65;7.50;;;6.40;99.90;;;;;;5103670;28;20024;-50
2023/12/12 06:11:12;;;;;;;10.70;8.13;;;6.40;99.90;;;;;;5102584;28;20028;-52
2023/12/12 06:13:38;;;;;;;13.65;10.52;;;6.50;99.90;;;;;;5099474;28;20042;-50
2023/12/12 06:16:04;;;;;;;25.85;20.80;;;6.40;99.90;;;;;;5100387;28;20475;-50
2023/12/12 06:18:30;;;;;;;24.42;18.77;;;6.40;99.90;;;;;;5103488;28;20049;-50
2023/12/12 06:20:56;;;;;;;17.13;12.07;;;6.40;99.90;;;;;;5105090;28;20032;-51
2023/12/12 06:23:22;;;;;;;23.60;15.55;;;6.40;99.90;;;;;;5108959;28;20028;-50
2023/12/12 06:25:48;;;;;;;20.20;13.77;;;6.30;99.90;;;;;;5081855;28;20119;-50
2023/12/12 06:28:14;;;;;;;14.05;9.43;;;6.30;99.90;;;;;;5105944;28;20055;-51
2023/12/12 06:30:39;;;;;;;18.45;12.52;;;6.40;99.90;;;;;;5104858;28;20352;-49
2023/12/12 06:33:05;;;;;;;22.73;14.05;;;6.40;99.90;;;;;;5101512;28;20371;-51
2023/12/12 06:35:31;;;;;;;21.33;16.70;;;6.50;99.90;;;;;;5106056;28;20514;-49
2023/12/12 06:37:57;;;;;;;17.73;13.20;;;6.60;99.90;;;;;;5103118;28;20035;-51
2023/12/12 06:40:23;;;;;;;16.50;12.32;;;6.70;99.90;;;;;;5102563;28;20028;-49
2023/12/12 06:42:48;;;;;;;12.73;10.02;;;6.70;99.90;;;;;;5110273;28;20020;-49
2023/12/12 06:45:15;;;;;;;12.95;10.70;;;6.90;99.90;;;;;;5104497;28;20032;-49
2023/12/12 06:47:41;;;;;;;23.48;18.15;;;7.00;99.90;;;;;;5112204;28;20047;-50
2023/12/12 06:50:07;;;;;;;14.25;10.65;;;7.10;99.90;;;;;;5098720;28;20096;-50
2023/12/12 06:52:34;;;;;;;7.68;5.75;;;7.00;99.90;;;;;;5045253;28;20383;-51
2023/12/12 06:54:59;;;;;;;10.43;8.63;;;7.00;99.90;;;;;;5093327;28;20044;-51
2023/12/12 06:57:25;;;;;;;17.65;12.10;;;6.90;99.90;;;;;;5108858;28;20015;-52
2023/12/12 06:59:52;;;;;;;16.60;13.30;;;6.90;99.90;;;;;;5109341;28;20489;-50
2023/12/12 07:02:18;;;;;;;18.40;15.25;;;6.90;99.90;;;;;;5110918;28;20028;-50
2023/12/12 07:04:44;;;;;;;33.92;25.85;;;6.90;99.90;;;;;;5108045;28;20028;-52
2023/12/12 07:07:11;;;;;;;30.42;24.67;;;7.00;99.90;;;;;;5111988;28;20084;-52
2023/12/12 07:09:37;;;;;;;31.77;25.05;;;7.10;99.90;;;;;;5104364;28;20382;-51
2023/12/12 07:12:04;;;;;;;50.72;35.80;;;7.30;99.90;;;;;;5091402;28;20061;-50
2023/12/12 07:14:30;;;;;;;36.78;28.75;;;7.30;99.90;;;;;;5042664;28;20140;-51
2023/12/12 07:16:56;;;;;;;42.05;32.80;;;7.40;99.90;;;;;;5113678;28;20028;-49
2023/12/12 07:19:22;;;;;;;42.60;33.08;;;7.30;99.90;;;;;;5111264;28;20035;-50
2023/12/12 07:21:48;;;;;;;37.35;29.05;;;7.20;99.90;;;;;;5092858;28;20035;-51
2023/12/12 07:24:14;;;;;;;36.13;25.90;;;7.30;99.90;;;;;;5113156;28;20391;-51
2023/12/12 07:26:46;;;;;;;33.88;27.90;;;7.40;99.90;;;;;;5093107;28;20482;-49
2023/12/12 07:29:17;;;;;;;34.55;26.63;;;7.50;99.90;;;;;;5112537;28;20110;-51
2023/12/12 07:31:46;;;;;;;42.25;32.10;;;7.50;99.90;;;;;;5088834;28;20497;-50
2023/12/12 07:34:12;;;;;;;45.55;35.17;;;7.80;99.90;;;;;;5106150;28;20104;-49
2023/12/12 07:36:39;;;;;;;27.35;21.50;;;7.90;99.90;;;;;;5108170;28;20103;-52
2023/12/12 07:39:05;;;;;;;26.88;19.77;;;8.10;99.90;;;;;;5111462;28;20116;-50
2023/12/12 07:41:35;;;;;;;24.65;20.25;;;8.10;99.90;;;;;;5106467;28;20084;-52
2023/12/12 07:44:02;;;;;;;28.15;23.60;;;8.10;99.90;;;;;;5104517;27;20067;-52
2023/12/12 07:46:28;;;;;;;24.98;20.17;;;8.20;99.90;;;;;;5108023;28;20121;-50
2023/12/12 07:48:54;;;;;;;26.50;19.33;;;8.20;99.90;;;;;;5114657;28;20027;-50
2023/12/12 07:51:20;;;;;;;23.42;18.98;;;8.20;99.90;;;;;;5106739;28;20514;-52
2023/12/12 07:53:46;;;;;;;26.67;20.85;;;8.60;99.90;;;;;;5094589;28;20121;-50
2023/12/12 07:56:11;;;;;;;26.58;20.95;;;8.70;99.90;;;;;;5086437;28;20055;-52
2023/12/12 07:58:37;;;;;;;31.23;22.45;;;8.60;99.90;;;;;;5114099;28;20038;-50
2023/12/12 08:01:03;;;;;;;22.85;19.25;;;9.10;99.90;;;;;;5109997;28;20031;-50
2023/12/12 08:03:30;;;;;;;20.65;18.35;;;;;;;;;;5111191;28;20028;-52
2023/12/12 08:05:56;;;;;;;23.70;18.15;;;;;;;;;;5103319;28;20106;-52
2023/12/12 08:08:22;;;;;;;18.77;16.02;;;11.80;99.90;;;;;;5093035;28;20054;-50
2023/12/12 08:10:47;;;;;;;20.40;16.10;;;11.70;99.90;;;;;;5086933;28;20036;-51
2023/12/12 08:13:13;;;;;;;17.15;15.43;;;11.90;99.90;;;;;;5094753;28;20552;-52
2023/12/12 08:15:39;;;;;;;14.02;12.63;;;;;;;;;;5112465;28;20351;-51
2023/12/12 08:18:05;;;;;;;15.30;13.63;;;16.70;99.90;;;;;;5086938;28;20040;-51
2023/12/12 08:20:31;;;;;;;16.08;14.45;;;18.30;99.90;;;;;;5111725;28;20082;-50
2023/12/12 08:22:57;;;;;;;13.25;11.82;;;;;;;;;;5108278;28;20027;-49
2023/12/12 08:25:23;;;;;;;11.98;10.70;;;;;;;;;;5106550;28;20039;-50
2023/12/12 08:27:49;;;;;;;17.33;14.75;;;21.80;96.40;;;;;;5104278;28;20498;-51
2023/12/12 08:30:15;;;;;;;13.95;12.57;;;;;;;;;;5094205;28;20042;-52
2023/12/12 08:32:41;;;;;;;16.77;14.15;;;;;;;;;;5105803;28;20099;-53
2023/12/12 08:35:07;;;;;;;16.58;14.98;;;;;;;;;;5105892;28;20355;-52
2023/12/12 08:37:33;;;;;;;16.10;14.40;;;;;;;;;;5070320;28;20035;-53
2023/12/12 08:40:00;;;;;;;14.85;13.45;;;;;;;;;;5089773;28;20028;-51
2023/12/12 08:42:26;;;;;;;14.68;12.73;;;27.90;87.60;;;;;;5101115;28;20038;-50
2023/12/12 08:44:51;;;;;;;13.75;12.32;;;27.70;87.40;;;;;;5102394;28;20055;-51
2023/12/12 08:47:17;;;;;;;14.75;13.25;;;27.00;86.90;;;;;;5107511;28;20039;-53
2023/12/12 08:49:43;;;;;;;14.10;12.77;;;27.40;85.80;;;;;;5100047;28;20099;-52
2023/12/12 08:52:09;;;;;;;14.65;13.27;;;28.10;85.00;;;;;;5091415;28;20102;-50
2023/12/12 08:54:36;;;;;;;17.27;15.52;;;28.50;83.90;;;;;;5106360;28;20027;-51
2023/12/12 08:57:03;;;;;;;15.13;13.68;;;29.00;83.40;;;;;;5103319;28;20059;-51
2023/12/12 08:59:29;;;;;;;17.52;15.93;;;28.80;83.00;;;;;;5102508;28;20093;-50
2023/12/12 09:01:55;;;;;;;15.82;14.25;;;29.50;82.20;;;;;;5107239;28;20024;-53
2023/12/12 09:04:21;;;;;;;17.48;15.88;;;29.50;81.00;;;;;;5107496;28;20055;-51
2023/12/12 09:06:47;;;;;;;14.52;13.00;;;;;;;;;;5106268;28;20402;-51
2023/12/12 09:09:13;;;;;;;17.95;16.23;;;;;;;;;;5109582;28;20028;-51
2023/12/12 09:11:40;;;;;;;20.45;18.35;;;;;;;;;;5106210;28;20031;-52
2023/12/12 09:14:06;;;;;;;17.70;16.10;;;28.10;82.40;;;;;;5089140;28;20069;-50
2023/12/12 09:16:32;;;;;;;17.88;15.95;;;;;;;;;;5070978;28;20085;-51
2023/12/12 09:18:58;;;;;;;16.98;15.18;;;29.00;80.90;;;;;;5093022;28;20039;-53
2023/12/12 09:21:24;;;;;;;15.85;14.15;;;28.50;80.90;;;;;;5107447;28;20020;-51
2023/12/12 09:23:50;;;;;;;20.48;18.50;;;28.60;80.80;;;;;;5111208;28;20128;-53
2023/12/12 09:26:15;;;;;;;21.50;18.98;;;28.10;81.40;;;;;;5108615;28;20085;-50
2023/12/12 09:28:42;;;;;;;19.33;17.45;;;27.60;81.80;;;;;;5106237;28;20061;-51
2023/12/12 09:31:09;;;;;;;18.30;16.60;;;28.30;82.10;;;;;;5108037;28;20032;-53
2023/12/12 09:33:35;;;;;;;17.77;15.93;;;28.40;81.70;;;;;;5111628;28;20011;-54
2023/12/12 09:36:01;;;;;;;17.00;15.30;;;28.90;81.10;;;;;;5107176;28;20031;-55
2023/12/12 09:38:28;;;;;;;17.27;15.48;;;28.90;80.60;;;;;;5103425;28;20154;-52
2023/12/12 09:40:54;;;;;;;17.80;16.00;;;29.10;80.20;;;;;;5110001;28;20043;-52
2023/12/12 09:43:26;;;;;;;18.52;16.75;;;29.40;80.40;;;;;;5106846;28;20478;-53
2023/12/12 09:45:59;;;;;;;19.02;17.23;;;29.40;79.70;;;;;;5106102;28;20459;-53
2023/12/12 09:48:25;;;;;;;17.45;15.85;;;29.70;79.60;;;;;;5104583;28;20126;-50
2023/12/12 09:50:54;;;;;;;15.13;13.65;;;29.40;79.40;;;;;;5086237;28;20120;-51
2023/12/12 09:53:20;;;;;;;15.20;13.70;;;29.50;79.30;;;;;;5109007;28;20036;-51
2023/12/12 09:55:46;;;;;;;15.43;13.73;;;29.20;79.80;;;;;;5098464;28;20040;-51
2023/12/12 09:58:12;;;;;;;16.98;15.27;;;29.10;79.50;;;;;;5053877;28;20658;-51
2023/12/12 10:00:38;;;;;;;16.65;15.05;;;29.20;80.00;;;;;;5107709;28;20031;-53
2023/12/12 10:03:05;;;;;;;14.93;13.43;;;;;;;;;;5111852;28;20064;-50
2023/12/12 10:05:35;;;;;;;12.27;11.18;;;28.90;78.10;;;;;;5107642;28;20027;-51
2023/12/12 10:08:06;;;;;;;14.15;12.15;;;28.50;79.00;;;;;;5096541;28;20122;-50
2023/12/12 10:10:32;;;;;;;11.35;9.43;;;28.70;79.10;;;;;;5069089;28;20088;-52
2023/12/12 10:12:57;;;;;;;9.98;9.00;;;29.40;79.40;;;;;;5064864;28;20534;-51
2023/12/12 10:15:25;;;;;;;9.90;8.90;;;;;;;;;;5084368;28;20040;-51
2023/12/12 10:17:58;;;;;;;8.73;7.35;;;29.90;78.20;;;;;;5109597;27;20039;-52
2023/12/12 10:20:29;;;;;;;8.25;7.45;;;29.80;78.10;;;;;;5106235;28;20541;-51
2023/12/12 10:23:03;;;;;;;9.23;8.32;;;29.50;77.80;;;;;;5103904;28;20020;-50
2023/12/12 10:25:30;;;;;;;9.27;7.25;;;30.00;78.00;;;;;;5104120;28;20306;-52
2023/12/12 10:27:57;;;;;;;7.75;7.00;;;29.70;77.90;;;;;;5110356;28;20063;-53
2023/12/12 10:30:25;;;;;;;7.95;6.63;;;29.60;78.30;;;;;;5105133;28;20135;-53
2023/12/12 10:32:52;;;;;;;10.45;8.18;;;29.80;78.50;;;;;;5095489;28;20456;-52
2023/12/12 10:35:21;;;;;;;10.15;9.05;;;;;;;;;;5088262;28;20086;-52
2023/12/12 10:37:51;;;;;;;9.45;8.38;;;28.40;77.50;;;;;;5089254;28;20031;-53
2023/12/12 10:40:21;;;;;;;10.07;8.98;;;29.00;78.60;;;;;;5086977;28;20036;-54
2023/12/12 10:42:50;;;;;;;7.75;6.47;;;28.30;77.40;;;;;;5086885;28;20394;-51
2023/12/12 10:45:17;;;;;;;8.50;6.05;;;27.50;77.50;;;;;;5091873;28;20024;-50
2023/12/12 10:47:46;;;;;;;5.70;5.10;;;;;;;;;;5091014;28;20511;-51
2023/12/12 10:50:15;;;;;;;6.68;5.82;;;;;;;;;;5089397;28;20024;-53
2023/12/12 10:52:43;;;;;;;9.27;6.45;;;;;;;;;;5093130;28;20074;-52
2023/12/12 10:55:13;;;;;;;11.25;9.77;;;;;;;;;;5088795;28;20470;-52
2023/12/12 10:57:42;;;;;;;8.65;7.10;;;;;;;;;;5084752;28;20035;-50
2023/12/12 11:00:13;;;;;;;7.68;6.53;;;;;;;;;;5087619;28;20036;-52
2023/12/12 11:02:40;;;;;;;6.57;5.87;;;;;;;;;;5080469;28;20368;-51
2023/12/12 11:05:10;;;;;;;8.35;7.20;;;25.50;93.90;;;;;;5090885;28;20020;-52
2023/12/12 11:07:36;;;;;;;9.57;8.27;;;;;;;;;;5081573;28;20075;-51
2023/12/12 11:10:22;;;;;;;12.18;10.57;;;;;;;;;;5088077;28;20062;-50
2023/12/12 11:12:55;;;;;;;9.00;7.82;;;24.00;98.10;;;;;;5080783;28;20509;-51
2023/12/12 11:15:23;;;;;;;12.10;9.20;;;23.90;83.00;;;;;;5089297;28;20025;-52
2023/12/12 11:17:51;;;;;;;6.90;5.75;;;24.10;84.00;;;;;;5086239;28;20352;-51
2023/12/12 11:20:18;;;;;;;8.02;7.05;;;24.30;82.80;;;;;;5070965;28;20044;-51
2023/12/12 11:22:48;;;;;;;7.28;5.18;;;24.60;82.60;;;;;;5080591;28;20036;-50
2023/12/12 11:25:17;;;;;;;6.40;4.93;;;;;;;;;;5086057;28;20077;-51
2023/12/12 11:27:47;;;;;;;4.85;4.32;;;23.40;93.20;;;;;;5090139;28;20479;-50
2023/12/12 11:30:14;;;;;;;6.72;3.28;;;24.50;81.90;;;;;;5087252;28;20036;-52
2023/12/12 11:32:42;;;;;;;8.70;5.38;;;24.20;80.80;;;;;;5092773;28;20032;-52
2023/12/12 11:35:28;;;;;;;5.03;3.90;;;;;;;;;;5093109;28;20062;-52
2023/12/12 11:37:54;;;;;;;6.03;4.63;;;;;;;;;;5085463;28;20039;-51
2023/12/12 11:40:20;;;;;;;6.32;5.15;;;23.60;81.50;;;;;;5091250;28;20028;-51
2023/12/12 11:42:46;;;;;;;7.97;4.93;;;;;;;;;;5104379;28;20034;-50
2023/12/12 11:45:32;;;;;;;5.18;4.40;;;23.30;82.70;;;;;;5086694;28;20036;-51
2023/12/12 11:47:59;;;;;;;6.85;4.30;;;23.80;83.60;;;;;;5063602;28;20455;-52
2023/12/12 11:50:26;;;;;;;4.38;3.80;;;;;;;;;;5074867;28;20040;-51
2023/12/12 11:52:52;;;;;;;8.55;5.97;;;;;;;;;;5088516;28;20042;-52
2023/12/12 11:55:19;;;;;;;7.15;5.82;;;;;;;;;;5098065;28;20036;-52
2023/12/12 11:57:46;;;;;;;7.32;5.00;;;;;;;;;;5094133;28;20106;-52
2023/12/12 12:00:16;;;;;;;5.35;4.53;;;;;;;;;;5092851;28;20032;-51
2023/12/12 12:02:42;;;;;;;7.60;5.65;;;23.10;87.70;;;;;;5087845;28;20028;-51
2023/12/12 12:05:09;;;;;;;6.72;4.22;;;23.20;91.90;;;;;;5098461;28;20028;-52
2023/12/12 12:07:38;;;;;;;5.97;4.10;;;;;;;;;;5102589;28;20052;-51
2023/12/12 12:10:04;;;;;;;9.20;5.90;;;;;;;;;;5095801;28;20047;-51
2023/12/12 12:12:31;;;;;;;8.35;6.13;;;;;;;;;;5058481;28;20070;-51
2023/12/12 12:15:09;;;;;;;13.93;10.10;;;20.70;88.30;;;;;;5097129;28;20132;-53
2023/12/12 12:17:36;;;;;;;6.93;5.05;;;20.50;88.80;;;;;;5096858;28;20040;-51
2023/12/12 12:20:03;;;;;;;6.05;3.63;;;20.40;89.70;;;;;;5096018;28;20063;-52
2023/12/12 12:22:29;;;;;;;5.88;4.22;;;;;;;;;;5064152;28;20047;-51
2023/12/12 12:24:56;;;;;;;6.30;3.67;;;20.00;90.00;;;;;;5058422;28;20044;-52
2023/12/12 12:27:22;;;;;;;6.28;4.63;;;;;;;;;;5023220;28;20040;-53
2023/12/12 12:30:06;;;;;;;7.18;5.35;;;;;;;;;;5067459;28;20040;-51
2023/12/12 12:32:35;;;;;;;5.68;3.88;;;;;;;;;;5057758;28;20131;-51
2023/12/12 12:35:08;;;;;;;5.80;4.10;;;;;;;;;;5067954;28;20048;-52
2023/12/12 12:37:34;;;;;;;6.63;4.68;;;;;;;;;;5064834;28;20538;-52
2023/12/12 12:40:05;;;;;;;11.60;9.32;;;;;;;;;;5062405;28;20214;-52
2023/12/12 12:42:35;;;;;;;23.35;16.98;;;18.50;92.90;;;;;;5055154;28;20115;-51
2023/12/12 12:45:02;;;;;;;12.40;9.73;;;;;;;;;;5060004;28;20043;-52
2023/12/12 12:47:29;;;;;;;10.07;7.45;;;18.20;99.90;;;;;;5067363;28;20119;-52
2023/12/12 12:49:55;;;;;;;8.43;5.47;;;;;;;;;;5058930;28;20247;-51
2023/12/12 12:52:21;;;;;;;7.90;4.93;;;17.60;95.60;;;;;;5060652;28;20119;-53
2023/12/12 12:54:47;;;;;;;7.45;5.05;;;17.80;95.60;;;;;;5064491;28;20132;-52
2023/12/12 12:57:14;;;;;;;5.05;3.97;;;17.80;96.30;;;;;;5063977;28;20033;-52
2023/12/12 12:59:39;;;;;;;4.97;3.95;;;17.80;96.60;;;;;;5048640;28;20559;-52
2023/12/12 13:02:07;;;;;;;4.53;3.85;;;17.80;95.60;;;;;;5087589;28;20107;-52
2023/12/12 13:04:33;;;;;;;6.47;4.78;;;;;;;;;;5089955;28;20028;-52
2023/12/12 13:07:00;;;;;;;7.53;5.57;;;17.50;96.50;;;;;;5092624;28;20032;-49